首页
METAR-TAF:

METAR-TAF

机场 :

Marfa, 得克萨斯州, 美国

纬度: 30-22N, 经度: 104-01W, 海拔: 1478米

当前天气观测

该预报发布于35分钟前的21:56 UTC
风速20节,风向西,有时为25节阵风
温度 33°C
湿度 6%
气压 1017 hPa
能見度: 16.1公里
天空无云

METAR: KMRF 262156Z AUTO 27020G25KT 10SM CLR 33/M09 A3004 RMK AO2 PK WND 27028/2059 SLP094 T03281094

时间: 17:31 (22:31 UTC)


TAF: 丢失

超过4000个机场的气象观测和天气预报(METAR&TAF报告)。

可查询的气象台以黄色和红色小点在地图上表示。

将鼠标移到小点上方,可查看气象台名称。

然后点击查看天气观测和预报。

如需切换地图:点击带黑十字的绿色按钮放大地图;点击带横线的绿色按钮缩小地图;或者点击绿色箭头查看邻近地区的地图。


METAR-TAF: